Portada
METAR-TAF:

METAR-TAF

Aeropuertos :

La Palma, España

Aeropuerto de La Palma

latitud: 28-37N, longitud: 017-45W, altitud: 29 m

Observación

El informe se hizo hace 27 minutos, a las 20:30 UTC
Viento 4 kt del este-noreste, variando entre norte-noreste y este
Temperatura 22°C
Humedad 73%
Presión 1022 hPa
Visibilidad 10 km o más
Cielo nuboso a una altura de 2200 ft

METAR: GCLA 162030Z AUTO 07004KT 030V100 9999 BKN022 22/17 Q1022

Hora: 21:57 (20:57 UTC)

Pronóstico

El informe se hizo hace 57 minutos, a las 20:00 UTC
Pronóstico válido del 16 a las 21 UTC al 17 a las 21 UTC
Viento 8 kt del norte
Visibilidad 10 km o más
Nubes dispersas a una altura de 2500 ft
Evolucionando progresivamente
del 17 a las 09 UTC al 17 a las 11 UTC
Viento 10 kt del noreste

TAF: GCLA 162000Z 1621/1721 35008KT 9999 SCT025 TX23/1714Z TN18/1706Z BECMG 1709/1711 05010KT

Observaciones y pronósticos meteorológicos de más de 4000 aeropuertos (mensajes METAR y TAF).

Los puntos amarillos y rojos representan las estaciones disponibles.

Ponga el ratón en el punto deseado para ver el nombre de la estación.

Haga clic para ver las observaciones y los pronósticos meteorológicos.

Para cambiar el mapa : haga clic en los botones verdes con una cruz de color negro para hacer un zoom, en el botón verde con un guión para alejar o en las flechas verdes para mapas adyacentes.


METAR-TAF: